Main page
METAR-TAF:

METAR-TAF

Airports :

Lakenheath, England

RAF Lakenheath

latitude: 52-25N, longitude: 000-34E, elevation: 10 m

Current weather observation

The report was made 56 minutes ago, at 17:58 UTC
Wind 9 kt from the East
Temperature 11°C
Humidity 66%
Pressure 1024 hPa
Visibility 10 km or more
Clear sky

METAR: EGUL 261758Z AUTO 08009KT 9999 CLR 11/05 A3024 RMK AO2 SLP244 T01050045 10141 20105 58002

Time: 19:54 (18:54 UTC)

Forecast

The report was made 30 hours and 36 minutes ago, at 12:18 UTC
Forecast valid from 25 at 12 UTC to 26 at 02 UTC
Wind 12 kt from the East/Northeast with gusts up to 20 kt
Visibility 10 km or more
Clear sky
Becoming
from 25 at 17 UTC to 25 at 18 UTC
Wind 12 kt from the Northeast
Visibility: 2712 m
Clear sky

TAF: EGUL 251218Z 2512/2602 06012G20KT 9999 SKC QNH3038INS BECMG 2517/2518 05012KT 9999 SKC QNH3020INS TX14/2514Z TN02/2602Z LAST NO AMDS AFT 2512 NEXT 2712

Weather observations and forecasts of more than 4000 airports (METAR and TAF reports).

The available stations are represented by yellow and red dots on the map.

Hover mouse over dot to see the name of the station.

Then click to see weather observations and forecasts.

To change the map : click on the green buttons with a black cross to zoom in, on the green button with a dash to zoom out, or on the green arrows for adjacent maps.


METAR-TAF: